Home > Products > Valid Products > MTR

000
SAUS45 KMSO 020354
MTRP69
METAR KP69 020352Z AUTO 00000KT 14/10 A3000 RMK AO1 SLP152 T01440100





000
SAUS45 KMSO 020254
MTRP69
METAR KP69 020252Z AUTO 34003KT 16/11 A2997 RMK AO1 SLP142 T01610106
53004





000
SAUS45 KMSO 020154
MTRP69
METAR KP69 020152Z AUTO 00000KT 18/10 A2995 RMK AO1 SLP135 T01780100





000
SAUS45 KMSO 020054
MTRP69
METAR KP69 020052Z AUTO 00000KT 20/09 A2994 RMK AO1 SLP132 T02000089





000
SAUS45 KMSO 012354
MTRP69
METAR KP69 012352Z AUTO 00000KT 22/08 A2995 RMK AO1 SLP133 T02170083
10278 20200 56013





000
SAUS45 KMSO 012254
MTRP69
METAR KP69 012252Z AUTO 18004KT 26/06 A2996 RMK AO1 SLP133 T02610061





000
SAUS45 KMSO 012153
MTRP69
METAR KP69 012152Z AUTO 00000KT 28/06 A2997 RMK AO1 SLP133 T02780056





000
SAUS45 KMSO 012053
MTRP69
METAR KP69 012052Z AUTO VRB05KT 26/06 A2999 RMK AO1 SLP141 T02560056
58020





000
SAUS45 KMSO 011954
MTRP69
METAR KP69 011952Z AUTO 24/06 A3001 RMK AO1 SLP150 T02390056





000
SAUS45 KMSO 011854
MTRP69
METAR KP69 011852Z AUTO 00000KT 23/06 A3004 RMK AO1 SLP159 T02330061





000
SAUS45 KMSO 011754
MTRP69
METAR KP69 011752Z AUTO 18004KT 21/07 A3006 RMK AO1 SLP167 T02060067
10206 20100 58018





000
SAUS45 KMSO 011654
MTRP69
METAR KP69 011652Z AUTO 35003KT 16/09 A3008 RMK AO1 SLP178 T01610089





000
SAUS45 KMSO 011554
MTRP69
METAR KP69 011552Z AUTO 35003KT 13/08 A3010 RMK AO1 SLP189 T01280083





000
SAUS45 KMSO 011454
MTRP69
METAR KP69 011452Z AUTO 35003KT 12/08 A3011 RMK AO1 SLP190 T01170083
51010





000
SAUS45 KMSO 011354
MTRP69
METAR KP69 011352Z AUTO 34003KT 10/08 A3011 RMK AO1 SLP188 T01000083





000
SAUS45 KMSO 011254
MTRP69
METAR KP69 011252Z AUTO 34003KT 10/08 A3009 RMK AO1 SLP181 T01000083





000
SAUS45 KMSO 011154
MTRP69
METAR KP69 011152Z AUTO 33004KT 10/08 A3008 RMK AO1 SLP176 T01000083
10128 20100 53009





000
SAUS45 KMSO 011053
MTRP69
METAR KP69 011052Z AUTO 31003KT 11/08 A3007 RMK AO1 SLP166 T01060083





000
SAUS45 KMSO 010954
MTRP69
METAR KP69 010952Z AUTO 33003KT 11/09 A3007 RMK AO1 SLP167 T01110089





000
SAUS45 KMSO 010853
MTRP69
METAR KP69 010852Z AUTO 00000KT 12/09 A3005 RMK AO1 SLP163 T01170094
53010





000
SAUS45 KMSO 010754
MTRP69
METAR KP69 010752Z AUTO 33003KT 12/09 A3004 RMK AO1 SLP160 T01220094
402780122





000
SAUS45 KMSO 010653
MTRP69
METAR KP69 010652Z AUTO 31003KT 12/09 A3003 RMK AO1 SLP157 T01220094





000
SAUS45 KMSO 010554
MTRP69
METAR KP69 010552Z AUTO 00000KT 13/09 A3002 RMK AO1 SLP156 T01280094
10233 20128 51019





000
SAUS45 KMSO 010453
MTRP69
METAR KP69 010452Z AUTO 00000KT 13/09 A3001 RMK AO1 SLP151 T01330094





000
SAUS45 KMSO 010353
MTRP69
METAR KP69 010352Z AUTO 00000KT 15/10 A2999 RMK AO1 SLP145 T01500100





000
SAUS45 KMSO 010253
MTRP69
METAR KP69 010252Z AUTO 00000KT 17/09 A2997 RMK AO1 SLP137 T01670094
53017





000
SAUS45 KMSO 010153
MTRP69
METAR KP69 010152Z AUTO 36003KT 19/10 A2994 RMK AO1 SLP126 T01940100





000
SAUS45 KMSO 010054
MTRP69
METAR KP69 010052Z AUTO VRB05KT 22/10 A2993 RMK AO1 SLP120 T02170100





000
SAUS45 KMSO 312354
MTRP69
METAR KP69 312352Z AUTO 35005KT 23/07 A2991 RMK AO1 SLP113 T02280067
10278 20189 56012





000
SAUS45 KMSO 312254
MTRP69
METAR KP69 312252Z AUTO VRB03KT 27/07 A2992 RMK AO1 SLP112 T02670067





000
SAUS45 KMSO 312154
MTRP69
METAR KP69 312152Z AUTO VRB04KT 26/05 A2993 RMK AO1 SLP118 T02560050





000
SAUS45 KMSO 312053
MTRP69
METAR KP69 312052Z AUTO 24/07 A2995 RMK AO1 SLP124 T02440067 58016





000
SAUS45 KMSO 311954
MTRP69
METAR KP69 311952Z AUTO VRB03KT 24/08 A2996 RMK AO1 SLP130 T02390078





000
SAUS45 KMSO 311854
MTRP69
METAR KP69 311852Z AUTO 00000KT 21/11 A2999 RMK AO1 SLP140 T02110111





000
SAUS45 KMSO 311754
MTRP69
METAR KP69 311752Z AUTO 35003KT 19/13 A3000 RMK AO1 SLP146 T01940128
10200 20144 58003





000
SAUS45 KMSO 311653
MTRP69
METAR KP69 311652Z AUTO 00000KT 17/13 A3001 RMK AO1 SLP151 T01720133





000
SAUS45 KMSO 311554
MTRP69
METAR KP69 311552Z AUTO 00000KT 16/13 A3001 RMK AO1 SLP151 T01610133





000
SAUS45 KMSO 311453
MTRP69
METAR KP69 311452Z AUTO 00000KT 15/13 A3001 RMK AO1 SLP152 T01500128
53015





000
SAUS45 KMSO 311354
MTRP69
METAR KP69 311352Z AUTO 00000KT 14/13 A2999 RMK AO1 SLP145 T01440133





000
SAUS45 KMSO 311253
MTRP69
METAR KP69 311252Z AUTO 00000KT 14/13 A2998 RMK AO1 SLP138 T01440133





000
SAUS45 KMSO 311153
MTRP69
METAR KP69 311152Z AUTO 00000KT 14/13 A2996 RMK AO1 SLP129 70017
T01440133 10150 20144 52009





000
SAUS45 KMSO 311053
MTRP69
METAR KP69 311052Z AUTO 00000KT 14/14 A2995 RMK AO1 SLP122 T01440139





000
SAUS45 KMSO 310953
MTRP69
METAR KP69 310952Z AUTO 00000KT 15/14 A2995 RMK AO1 SLP120 T01500139





000
SAUS45 KMSO 310853
MTRP69
METAR KP69 310852Z AUTO 00000KT 15/14 A2994 RMK AO1 SLP117 T01500139
53004





000
SAUS45 KMSO 310754
MTRP69
METAR KP69 310752Z AUTO 00000KT 15/14 A2993 RMK AO1 SLP115 T01500144
402890144





000
SAUS45 KMSO 310654
MTRP69
METAR KP69 310652Z AUTO 00000KT 15/14 A2992 RMK AO1 SLP115 T01500144





000
SAUS45 KMSO 310554
MTRP69
METAR KP69 310552Z AUTO 00000KT 15/14 A2992 RMK AO1 SLP119 P0001
60017 T01500144 10244 20150 51008





000
SAUS45 KMSO 310454
MTRP69
METAR KP69 310452Z AUTO 00000KT 16/14 A2992 RMK AO1 SLP120 P0006
T01560144





000
SAUS45 KMSO 310354
MTRP69
METAR KP69 310352Z AUTO 00000KT 16/14 A2992 RMK AO1 SLP121 P0006
T01560144





000
SAUS45 KMSO 310254
MTRP69
METAR KP69 310252Z AUTO 00000KT 16/14 A2990 RMK AO1 SLP115 P0003
60004 T01610144 53032





000
SAUS45 KMSO 310154
MTRP69
METAR KP69 310152Z AUTO 00000KT 17/13 A2987 RMK AO1 PRESRR SLP103
P0001 T01720133





000
SAUS45 KMSO 310054
MTRP69
METAR KP69 310052Z AUTO VRB03KT 21/10 A2980 RMK AO1 SLP076 T02110100





000
SAUS45 KMSO 302354
MTRP69
METAR KP69 302352Z AUTO VRB04KT 24/09 A2980 RMK AO1 SLP073 T02390089
10289 20217 55009





000
SAUS45 KMSO 302254
MTRP69
METAR KP69 302252Z AUTO 35004KT 28/09 A2980 RMK AO1 SLP068 T02780089





000
SAUS45 KMSO 302154
MTRP69
METAR KP69 302152Z AUTO 00000KT 28/08 A2981 RMK AO1 SLP071 T02780078





000
SAUS45 KMSO 302054
MTRP69
METAR KP69 302052Z AUTO 00000KT 27/08 A2983 RMK AO1 SLP079 T02720078
58023





000
SAUS45 KMSO 301953
MTRP69
METAR KP69 301952Z AUTO VRB03KT 26/08 A2985 RMK AO1 SLP088 T02560078





000
SAUS45 KMSO 301854
MTRP69
METAR KP69 301852Z AUTO 00000KT 25/09 A2988 RMK AO1 SLP097 T02500089





000
SAUS45 KMSO 301754
MTRP69
METAR KP69 301752Z AUTO 00000KT 22/08 A2990 RMK AO1 SLP107 T02170078
10222 20144 58008





000
SAUS45 KMSO 301654
MTRP69
METAR KP69 301652Z AUTO 00000KT 19/12 A2992 RMK AO1 SLP115 T01890122





000
SAUS45 KMSO 301554
MTRP69
METAR KP69 301552Z AUTO 34003KT 17/12 A2992 RMK AO1 SLP118 T01670122





000
SAUS45 KMSO 301453
MTRP69
METAR KP69 301452Z AUTO 00000KT 15/12 A2992 RMK AO1 SLP120 T01500122
50008





000
SAUS45 KMSO 301353
MTRP69
METAR KP69 301352Z AUTO 00000KT 14/12 A2993 RMK AO1 SLP119 T01440117





000
SAUS45 KMSO 301253
MTRP69
METAR KP69 301252Z AUTO 00000KT 14/12 A2991 RMK AO1 SLP112 T01440122





000
SAUS45 KMSO 301155
MTRP69
METAR KP69 301152Z AUTO 35003KT 15/12 A2990 RMK AO1 SLP105 T01500122
10178 20150 53002





000
SAUS45 KMSO 301053
MTRP69
METAR KP69 301052Z AUTO 00000KT 16/12 A2989 RMK AO1 SLP097 T01560122





000
SAUS45 KMSO 300953
MTRP69
METAR KP69 300952Z AUTO 00000KT 16/12 A2990 RMK AO1 SLP098 T01610122





000
SAUS45 KMSO 300853
MTRP69
METAR KP69 300852Z AUTO 00000KT 16/12 A2989 RMK AO1 SLP097 T01610122
53016





000
SAUS45 KMSO 300754
MTRP69
METAR KP69 300752Z AUTO 00000KT 17/12 A2987 RMK AO1 SLP088 T01720117
403440111





000
SAUS45 KMSO 300654
MTRP69
METAR KP69 300652Z AUTO 35003KT 17/12 A2985 RMK AO1 SLP086 T01720117





000
SAUS45 KMSO 300554
MTRP69
METAR KP69 300552Z AUTO 35003KT 18/11 A2985 RMK AO1 SLP088 T01780111
10267 20178 51020





000
SAUS45 KMSO 300454
MTRP69
METAR KP69 300452Z AUTO 33003KT 18/11 A2983 RMK AO1 SLP088 T01830111





    US Dept of Commerce
    National Oceanic and Atmospheric Administration
    National Weather Service
    1325 East West Highway
    Silver Spring, MD 20910
    Page Author: NWS Internet Services Team
Disclaimer
Information Quality
Credits
Glossary
Privacy Policy
Freedom of Information Act (FOIA)
About Us
Career Opportunities